Time;durP1;ratioP1;P1;durP2;ratioP2;P2;SDS_P1;SDS_P2;PMS_P1;PMS_P2;Temp;Humidity;BMP_temperature;BMP_pressure;BME280_temperature;BME280_humidity;BME280_pressure;Samples;Min_cycle;Max_cycle;Signal;HPM_P1;HPM_P2
2021/06/16 00:01:10;;;;;;;2.35;1.17;;;;;;;31.05;21.78;98348.97;5061062;28;20245;-83
2021/06/16 00:03:36;;;;;;;1.42;1.30;;;;;;;31.20;21.13;98350.66;5043394;28;20511;-83
2021/06/16 00:06:03;;;;;;;2.10;1.17;;;;;;;30.86;21.84;98355.88;5056126;28;20507;-83
2021/06/16 00:08:29;;;;;;;1.65;1.08;;;;;;;30.47;22.04;98344.25;5060905;28;20021;-83
2021/06/16 00:10:55;;;;;;;2.10;1.15;;;;;;;30.62;22.00;98353.69;5058931;28;20056;-83
2021/06/16 00:13:22;;;;;;;1.20;0.85;;;;;;;30.70;21.89;98349.28;5065279;28;20040;-83
2021/06/16 00:15:48;;;;;;;1.88;0.95;;;;;;;30.78;21.81;98350.53;5067709;28;20103;-83
2021/06/16 00:18:14;;;;;;;1.38;0.93;;;;;;;30.77;21.68;98353.84;5053318;28;20033;-82
2021/06/16 00:20:41;;;;;;;1.40;0.98;;;;;;;30.69;21.97;98358.28;5054432;28;20043;-85
2021/06/16 00:23:07;;;;;;;3.40;1.02;;;;;;;30.65;21.78;98357.63;5064528;28;20048;-84
2021/06/16 00:25:33;;;;;;;1.10;1.00;;;;;;;30.66;22.00;98359.22;5062581;28;20033;-85
2021/06/16 00:28:00;;;;;;;3.85;1.10;;;;;;;30.45;22.02;98358.13;5060221;28;20045;-85
2021/06/16 00:30:26;;;;;;;2.75;0.93;;;;;;;30.32;21.80;98359.47;5057604;28;20496;-83
2021/06/16 00:32:54;;;;;;;0.85;0.80;;;;;;;30.51;21.54;98358.25;5052305;28;20041;-84
2021/06/16 00:35:20;;;;;;;2.28;1.48;;;;;;;30.69;21.30;98353.38;5057156;28;20067;-84
2021/06/16 00:37:52;;;;;;;2.10;1.25;;;;;;;30.83;21.16;98354.03;5066171;28;20056;-84
2021/06/16 00:40:23;;;;;;;2.17;1.23;;;;;;;30.89;21.53;98347.25;5059380;28;20093;-84
2021/06/16 00:42:49;;;;;;;1.52;1.05;;;;;;;30.72;21.82;98345.97;5055841;28;20073;-83
2021/06/16 00:45:17;;;;;;;1.30;1.00;;;;;;;30.61;21.85;98348.50;5062088;28;20062;-83
2021/06/16 00:47:44;;;;;;;2.83;1.70;;;;;;;30.67;21.63;98343.78;5060202;28;20033;-85
2021/06/16 00:50:12;;;;;;;1.80;0.93;;;;;;;30.72;21.67;98343.13;5059664;28;20032;-84
2021/06/16 00:52:38;;;;;;;4.32;1.27;;;;;;;30.65;21.48;98332.91;5059280;28;20059;-84
2021/06/16 00:55:06;;;;;;;1.23;0.80;;;;;;;30.56;21.79;98338.59;5059014;28;20035;-84
2021/06/16 00:57:32;;;;;;;0.90;0.70;;;;;;;30.52;21.62;98342.84;5059176;28;20032;-84
2021/06/16 01:00:14;;;;;;;2.47;0.95;;;;;;;30.16;21.97;98337.09;5056636;28;20033;-84
2021/06/16 01:02:52;;;;;;;1.00;0.77;;;;;;;30.16;21.90;98337.88;5064625;28;20024;-84
2021/06/16 01:05:19;;;;;;;1.50;1.00;;;;;;;30.39;21.81;98342.19;5059245;28;20044;-84
2021/06/16 01:07:53;;;;;;;2.50;1.00;;;;;;;30.28;22.09;98347.50;5055425;28;20112;-84
2021/06/16 01:10:22;;;;;;;1.35;0.90;;;;;;;30.27;22.02;98346.72;5059461;28;22238;-84
2021/06/16 01:13:05;;;;;;;3.33;1.23;;;;;;;30.18;22.16;98346.69;5054547;28;20044;-83
2021/06/16 01:15:56;;;;;;;1.50;0.85;;;;;;;29.93;22.21;98344.94;5054195;28;20496;-84
2021/06/16 01:18:25;;;;;;;2.13;0.98;;;;;;;30.02;21.80;98336.44;5055648;28;20075;-82
2021/06/16 01:20:54;;;;;;;1.08;0.80;;;;;;;29.99;22.12;98343.03;5054850;28;20056;-83
2021/06/16 01:23:49;;;;;;;0.95;0.80;;;;;;;29.79;22.16;98342.69;5060700;28;20029;-82
2021/06/16 01:26:32;;;;;;;1.30;0.90;;;;;;;29.81;22.69;98354.31;5063859;28;20040;-83
2021/06/16 01:29:03;;;;;;;1.58;0.90;;;;;;;30.01;22.25;98345.41;5059914;28;20050;-83
2021/06/16 01:31:31;;;;;;;3.00;1.10;;;;;;;30.09;22.49;98338.97;5061306;28;20025;-82
2021/06/16 01:33:58;;;;;;;1.02;0.88;;;;;;;30.20;22.06;98335.69;5057593;28;20029;-83
2021/06/16 01:36:26;;;;;;;1.83;1.00;;;;;;;30.12;21.96;98340.09;5055250;28;20048;-83
2021/06/16 01:38:52;;;;;;;1.55;1.25;;;;;;;29.76;22.60;98339.97;5060385;28;20036;-82
2021/06/16 01:41:20;;;;;;;1.33;1.00;;;;;;;29.95;22.38;98342.41;5068884;28;20551;-83
2021/06/16 01:43:51;;;;;;;1.67;0.68;;;;;;;30.29;21.86;98343.41;5064912;28;20040;-83
2021/06/16 01:46:18;;;;;;;0.93;0.65;;;;;;;30.37;21.82;98337.00;5058843;28;20039;-83
2021/06/16 01:48:47;;;;;;;0.80;0.60;;;;;;;30.45;21.55;98341.13;5070670;28;20037;-82
2021/06/16 01:51:13;;;;;;;1.77;0.98;;;;;;;30.25;21.70;98337.09;5060409;28;20032;-81
2021/06/16 01:53:41;;;;;;;1.40;0.85;;;;;;;29.78;22.35;98343.91;5055812;28;20079;-81
2021/06/16 01:56:08;;;;;;;1.95;1.15;;;;;;;29.68;22.49;98338.69;5067811;28;20033;-82
2021/06/16 01:58:35;;;;;;;1.17;0.95;;;;;;;29.58;22.63;98342.72;5058555;28;20120;-82
2021/06/16 02:01:03;;;;;;;1.15;0.70;;;;;;;29.70;22.15;98336.97;5061076;28;20040;-82
2021/06/16 02:03:29;;;;;;;0.93;0.77;;;;;;;29.99;22.03;98343.03;5064986;28;20045;-82
2021/06/16 02:05:59;;;;;;;1.50;0.95;;;;;;;30.02;22.23;98347.78;5062365;28;20036;-81
2021/06/16 02:08:29;;;;;;;1.23;1.13;;;;;;;29.88;22.05;98336.25;5059199;28;20039;-83
2021/06/16 02:10:56;;;;;;;0.80;0.80;;;;;;;30.14;21.68;98339.59;5061331;28;20036;-82
2021/06/16 02:13:34;;;;;;;0.80;0.70;;;;;;;30.13;21.75;98335.97;5064955;28;20111;-81
2021/06/16 02:16:05;;;;;;;1.65;1.00;;;;;;;30.01;22.08;98345.41;5059729;28;20108;-81
2021/06/16 02:18:34;;;;;;;;;;;;;;;29.46;23.86;98349.25;5069053;28;20048;-81
2021/06/16 02:21:00;;;;;;;1.05;0.75;;;;;;;29.63;22.48;98347.78;5054856;28;19920;-81
2021/06/16 02:23:27;;;;;;;1.45;0.88;;;;;;;29.87;22.08;98348.84;5058410;28;20090;-82
2021/06/16 02:25:54;;;;;;;1.02;0.77;;;;;;;30.09;21.71;98343.84;5056669;28;20059;-82
2021/06/16 02:28:20;;;;;;;2.42;1.00;;;;;;;30.09;22.06;98347.47;5060791;28;20428;-83
2021/06/16 02:30:47;;;;;;;1.27;0.82;;;;;;;29.78;22.07;98346.75;5057897;28;20032;-83
2021/06/16 02:33:13;;;;;;;1.30;0.75;;;;;;;29.83;22.01;98337.66;5061598;28;20077;-83
2021/06/16 02:35:39;;;;;;;1.80;1.00;;;;;;;29.88;21.79;98345.53;5060072;28;20094;-83
2021/06/16 02:38:10;;;;;;;1.60;0.85;;;;;;;30.03;21.35;98352.19;5067170;28;20098;-83
2021/06/16 02:40:40;;;;;;;1.20;0.98;;;;;;;30.01;21.92;98353.91;5057165;28;20033;-83
2021/06/16 02:43:06;;;;;;;1.02;0.70;;;;;;;29.98;21.85;98349.19;5055636;28;20044;-84
2021/06/16 02:45:33;;;;;;;1.20;0.82;;;;;;;30.13;21.81;98346.53;5063563;28;20025;-83
2021/06/16 02:48:01;;;;;;;1.10;0.80;;;;;;;29.93;22.32;98350.59;5061954;28;20043;-84
2021/06/16 02:50:29;;;;;;;1.33;0.80;;;;;;;29.68;22.69;98353.63;5057730;28;20083;-83
2021/06/16 02:53:00;;;;;;;1.17;0.95;;;;;;;29.54;22.49;98350.56;5066767;28;20035;-83
2021/06/16 02:55:27;;;;;;;1.55;0.98;;;;;;;29.84;22.10;98358.25;5061611;28;20051;-83
2021/06/16 02:57:55;;;;;;;1.20;0.82;;;;;;;29.93;21.99;98361.13;5059932;28;20029;-83
2021/06/16 03:00:22;;;;;;;1.20;1.10;;;;;;;30.09;22.12;98361.63;5053911;28;20037;-82
2021/06/16 03:02:49;;;;;;;1.40;0.90;;;;;;;30.23;21.48;98360.25;5066817;28;20067;-82
2021/06/16 03:05:27;;;;;;;1.55;0.85;;;;;;;30.41;21.22;98363.13;5060116;28;20037;-81
2021/06/16 03:07:56;;;;;;;1.45;1.00;;;;;;;30.37;21.47;98361.72;5058018;28;20029;-81
2021/06/16 03:10:24;;;;;;;1.40;0.93;;;;;;;29.98;21.91;98363.34;5053315;28;20037;-81
2021/06/16 03:12:53;;;;;;;1.25;0.90;;;;;;;29.77;21.90;98369.88;5057011;28;20071;-81
2021/06/16 03:15:20;;;;;;;0.68;0.68;;;;;;;29.95;21.86;98370.72;5060345;28;20029;-82
2021/06/16 03:17:48;;;;;;;1.08;0.90;;;;;;;30.22;21.72;98375.69;5054967;28;20465;-82
2021/06/16 03:20:18;;;;;;;1.55;0.90;;;;;;;30.45;21.85;98380.78;5059066;28;20098;-81
2021/06/16 03:22:45;;;;;;;1.20;1.10;;;;;;;30.63;21.29;98380.78;5071977;28;20117;-82
2021/06/16 03:25:13;;;;;;;1.08;0.98;;;;;;;30.74;21.46;98381.09;5064841;28;20283;-81
2021/06/16 03:27:39;;;;;;;1.15;0.85;;;;;;;30.84;21.45;98384.72;5060445;28;20503;-82
2021/06/16 03:30:08;;;;;;;1.05;0.90;;;;;;;30.52;22.03;98396.69;5060839;28;20040;-82
2021/06/16 03:32:36;;;;;;;0.70;0.70;;;;;;;30.63;21.68;98397.00;5064472;28;20048;-81
2021/06/16 03:35:04;;;;;;;1.70;0.90;;;;;;;30.80;22.51;98386.94;5061176;28;20039;-81
2021/06/16 03:37:32;;;;;;;6.80;2.80;;;;;;;31.00;22.50;98392.94;5060653;28;20040;-81
2021/06/16 03:39:59;;;;;;;1.55;0.88;;;;;;;31.37;21.44;98394.44;5058132;28;20033;-81
2021/06/16 03:42:25;;;;;;;2.95;1.10;;;;;;;31.83;21.61;98397.97;5055997;28;20035;-83
2021/06/16 03:44:53;;;;;;;1.70;1.27;;;;;;;32.07;21.22;98393.13;5063241;28;20516;-83
2021/06/16 03:47:21;;;;;;;1.58;1.17;;;;;;;32.49;21.95;98404.44;5059496;28;20033;-84
2021/06/16 03:49:50;;;;;;;3.08;1.55;;;;;;;32.78;21.71;98380.22;5053715;28;20477;-84
2021/06/16 03:52:18;;;;;;;3.42;1.27;;;;;;;33.08;21.44;98390.41;5053202;28;20029;-84
2021/06/16 03:54:47;;;;;;;2.35;1.00;;;;;;;33.37;22.03;98385.50;5054578;28;20211;-83
2021/06/16 03:57:13;;;;;;;1.30;0.90;;;;;;;33.80;21.14;98392.47;5067232;28;20028;-83
2021/06/16 03:59:41;;;;;;;1.75;1.45;;;;;;;33.84;21.52;98386.59;5059130;28;20025;-84
2021/06/16 04:02:07;;;;;;;1.48;1.35;;;;;;;33.65;21.84;98393.78;5057917;28;20055;-84
2021/06/16 04:04:34;;;;;;;1.73;1.45;;;;;;;33.43;21.91;98389.25;5052097;28;20042;-83
2021/06/16 04:07:01;;;;;;;1.92;1.15;;;;;;;33.40;21.91;98384.53;5055082;28;20029;-83
2021/06/16 04:09:28;;;;;;;1.30;1.20;;;;;;;33.57;21.83;98387.69;5061256;28;20029;-82
2021/06/16 04:11:54;;;;;;;1.13;1.02;;;;;;;33.77;21.50;98389.84;5058910;28;20083;-83
2021/06/16 04:14:23;;;;;;;1.17;1.08;;;;;;;34.06;22.24;98392.66;5053818;28;20064;-83
2021/06/16 04:16:52;;;;;;;1.13;0.73;;;;;;;34.47;22.16;98402.81;5058803;28;20067;-83
2021/06/16 04:19:18;;;;;;;0.90;0.85;;;;;;;34.64;21.44;98398.16;5055619;28;20481;-82
2021/06/16 04:21:44;;;;;;;2.25;1.55;;;;;;;34.49;21.51;98396.66;5056370;28;20035;-83
2021/06/16 04:24:10;;;;;;;2.47;1.17;;;;;;;34.17;22.07;98398.50;5052124;28;20041;-83
2021/06/16 04:26:36;;;;;;;3.20;1.58;;;;;;;34.15;21.72;98395.38;5054141;28;20029;-83
2021/06/16 04:29:02;;;;;;;1.40;1.02;;;;;;;34.38;21.45;98397.25;5062080;28;20094;-83
2021/06/16 04:31:28;;;;;;;2.03;1.58;;;;;;;34.62;20.55;98400.75;5052132;28;20496;-83
2021/06/16 04:33:55;;;;;;;1.60;0.98;;;;;;;34.70;21.36;98401.88;5053833;28;20053;-83
2021/06/16 04:36:21;;;;;;;1.63;1.30;;;;;;;34.87;21.44;98401.31;5059485;28;20116;-83
2021/06/16 04:38:47;;;;;;;1.67;1.08;;;;;;;35.04;20.84;98396.59;5065084;28;20040;-81
2021/06/16 04:41:13;;;;;;;1.33;0.80;;;;;;;35.24;20.35;98403.03;5056078;28;20039;-81
2021/06/16 04:43:39;;;;;;;1.48;0.85;;;;;;;35.34;21.65;98400.81;5055817;28;20108;-81
2021/06/16 04:46:05;;;;;;;0.90;0.80;;;;;;;35.34;21.82;98395.88;5075219;28;20098;-81
2021/06/16 04:48:31;;;;;;;1.30;0.90;;;;;;;35.65;21.57;98402.94;5061725;28;20032;-82
2021/06/16 04:50:58;;;;;;;1.70;0.82;;;;;;;35.83;20.97;98400.50;5057896;28;20107;-81
2021/06/16 04:53:24;;;;;;;1.55;1.17;;;;;;;35.39;20.91;98397.22;5061586;28;20025;-82
2021/06/16 04:55:50;;;;;;;1.33;1.15;;;;;;;34.88;20.76;98392.25;5063110;28;20064;-81
2021/06/16 04:58:17;;;;;;;4.53;0.80;;;;;;;35.01;21.25;98395.50;5059571;28;20111;-83
2021/06/16 05:00:43;;;;;;;1.05;0.90;;;;;;;35.12;21.39;98398.53;5059014;28;20094;-84
2021/06/16 05:03:09;;;;;;;0.98;0.88;;;;;;;35.14;21.88;98395.16;5054828;28;20075;-85
2021/06/16 05:05:35;;;;;;;2.15;0.90;;;;;;;35.24;20.98;98390.84;5057447;28;20029;-83
2021/06/16 05:08:01;;;;;;;1.40;0.98;;;;;;;35.39;20.63;98391.50;5065704;28;20032;-83
2021/06/16 05:10:27;;;;;;;0.90;0.85;;;;;;;35.73;20.64;98393.38;5060654;28;20112;-82
2021/06/16 05:12:53;;;;;;;1.33;1.00;;;;;;;36.29;20.10;98402.41;5064236;28;20035;-82
2021/06/16 05:15:19;;;;;;;1.05;0.80;;;;;;;36.30;19.99;98406.81;5068251;28;20168;-82
2021/06/16 05:17:46;;;;;;;0.80;0.70;;;;;;;36.23;20.03;98408.09;5060083;28;20041;-84
2021/06/16 05:20:13;;;;;;;1.02;0.88;;;;;;;35.89;20.50;98395.63;5060157;28;20098;-82
2021/06/16 05:22:40;;;;;;;0.95;0.82;;;;;;;35.99;21.48;98407.66;5069325;28;20120;-84
2021/06/16 05:25:09;;;;;;;0.80;0.63;;;;;;;36.09;21.08;98411.91;5065966;28;20044;-83
2021/06/16 05:27:36;;;;;;;0.75;0.60;;;;;;;36.60;20.70;98413.78;5056403;28;20099;-83
2021/06/16 05:30:05;;;;;;;1.00;0.70;;;;;;;36.83;19.88;98418.31;5058328;28;20025;-84
2021/06/16 05:32:31;;;;;;;0.73;0.50;;;;;;;36.72;20.19;98410.47;5061271;28;20157;-84
2021/06/16 05:34:57;;;;;;;0.80;0.60;;;;;;;37.14;19.55;98411.69;5062957;28;20492;-90
2021/06/16 05:37:24;;;;;;;0.65;0.40;;;;;;;37.63;20.00;98408.16;5062522;28;20032;-85
2021/06/16 05:39:50;;;;;;;1.02;0.73;;;;;;;37.83;20.03;98405.06;5057220;28;20033;-87
2021/06/16 05:42:16;;;;;;;0.73;0.73;;;;;;;37.91;20.50;98408.97;5063904;28;20040;-84
2021/06/16 05:44:42;;;;;;;0.52;0.50;;;;;;;38.16;19.96;98407.09;5060077;28;20033;-87
2021/06/16 05:47:09;;;;;;;0.52;0.50;;;;;;;38.57;18.43;98399.50;5061223;28;20041;-86
2021/06/16 05:49:35;;;;;;;0.93;0.50;;;;;;;38.89;18.30;98410.59;5058445;28;20067;-83
2021/06/16 05:52:01;;;;;;;0.70;0.70;;;;;;;38.86;19.02;98405.94;5054644;28;20121;-83
2021/06/16 05:54:27;;;;;;;1.80;1.00;;;;;;;38.43;19.17;98411.28;5068591;28;20025;-83
2021/06/16 05:56:54;;;;;;;0.73;0.73;;;;;;;38.22;18.98;98407.91;5065410;28;20117;-83
2021/06/16 05:59:20;;;;;;;0.60;0.60;;;;;;;37.91;18.64;98413.91;5056411;28;20427;-83
2021/06/16 06:01:46;;;;;;;0.88;0.60;;;;;;;37.81;18.96;98412.59;5057147;28;20140;-83
2021/06/16 06:04:12;;;;;;;1.75;0.50;;;;;;;38.31;18.83;98412.59;5062826;28;20508;-83
2021/06/16 06:06:38;;;;;;;0.82;0.65;;;;;;;38.83;18.38;98413.50;5072322;28;20060;-84
2021/06/16 06:09:09;;;;;;;2.05;0.77;;;;;;;39.11;15.78;98411.28;5065115;28;20036;-83
2021/06/16 06:11:37;;;;;;;0.80;0.57;;;;;;;39.02;16.96;98414.47;5060758;28;20488;-83
2021/06/16 06:14:04;;;;;;;0.57;0.40;;;;;;;38.44;16.52;98413.59;5075219;28;20103;-84
2021/06/16 06:16:30;;;;;;;0.60;0.50;;;;;;;38.59;16.25;98422.69;5062443;28;20013;-84
2021/06/16 06:18:57;;;;;;;0.50;0.47;;;;;;;39.01;15.47;98429.34;5054605;28;20102;-84
2021/06/16 06:21:23;;;;;;;1.27;1.10;;;;;;;39.33;15.84;98424.75;5056057;28;20103;-84
2021/06/16 06:23:49;;;;;;;0.82;0.55;;;;;;;39.58;15.47;98422.78;5073252;28;20138;-84
2021/06/16 06:26:15;;;;;;;1.35;0.70;;;;;;;39.57;13.93;98424.88;5074775;28;20051;-84
2021/06/16 06:28:42;;;;;;;0.47;0.47;;;;;;;39.51;14.54;98424.16;5073974;28;20131;-84
2021/06/16 06:31:09;;;;;;;1.27;0.73;;;;;;;39.49;15.64;98426.75;5062836;28;20120;-84
2021/06/16 06:33:35;;;;;;;0.60;0.50;;;;;;;39.74;15.91;98419.81;5069016;28;20489;-83
2021/06/16 06:36:01;;;;;;;0.68;0.63;;;;;;;39.67;15.49;98433.97;5065122;28;20033;-84
2021/06/16 06:38:27;;;;;;;1.40;0.63;;;;;;;39.34;15.43;98426.34;5054832;28;20033;-84
2021/06/16 06:40:53;;;;;;;1.63;0.70;;;;;;;39.56;16.22;98439.78;5054673;28;20051;-84
2021/06/16 06:43:19;;;;;;;1.67;0.70;;;;;;;38.43;15.84;98428.50;5067810;28;20043;-84
2021/06/16 06:45:45;;;;;;;3.05;0.90;;;;;;;37.79;17.79;98427.44;5073216;28;20385;-84
2021/06/16 06:48:11;;;;;;;1.17;1.00;;;;;;;37.66;17.32;98415.72;5059332;28;20120;-84
2021/06/16 06:50:37;;;;;;;0.98;0.85;;;;;;;36.99;18.21;98431.97;5053999;28;20037;-83
2021/06/16 06:53:04;;;;;;;0.60;0.60;;;;;;;37.17;19.62;98425.78;5054468;28;20052;-84
2021/06/16 06:55:30;;;;;;;1.70;0.65;;;;;;;37.62;19.00;98423.00;5054113;28;20068;-84
2021/06/16 06:57:56;;;;;;;1.77;0.88;;;;;;;38.55;18.35;98424.28;5063195;28;20045;-84
2021/06/16 07:00:22;;;;;;;1.88;0.68;;;;;;;39.23;17.71;98427.16;5056439;28;20064;-84
2021/06/16 07:02:48;;;;;;;1.30;0.75;;;;;;;39.77;17.25;98426.59;5055851;28;20398;-83
2021/06/16 07:05:16;;;;;;;3.15;0.90;;;;;;;38.94;17.13;98424.94;5057959;28;20489;-84
2021/06/16 07:07:42;;;;;;;0.80;0.60;;;;;;;38.63;17.82;98423.19;5055304;28;20079;-83
2021/06/16 07:10:10;;;;;;;0.93;0.82;;;;;;;38.43;17.72;98432.16;5053968;28;20530;-84
2021/06/16 07:12:36;;;;;;;2.35;0.82;;;;;;;38.16;16.72;98432.94;5055810;28;20820;-84
2021/06/16 07:15:03;;;;;;;1.55;0.98;;;;;;;37.97;17.27;98426.94;5064033;28;20112;-84
2021/06/16 07:17:29;;;;;;;0.90;0.90;;;;;;;37.20;18.01;98430.44;5063684;28;20033;-84
2021/06/16 07:19:55;;;;;;;4.15;1.00;;;;;;;37.25;18.33;98426.06;5081034;28;20028;-84
2021/06/16 07:22:21;;;;;;;1.50;0.70;;;;;;;38.09;18.14;98426.97;5063140;28;20044;-83
2021/06/16 07:24:47;;;;;;;1.80;0.80;;;;;;;38.79;17.71;98423.72;5054852;28;20027;-84
2021/06/16 07:27:13;;;;;;;2.85;0.85;;;;;;;38.90;17.57;98426.53;5053157;28;20052;-84
2021/06/16 07:29:40;;;;;;;0.80;0.63;;;;;;;38.74;17.50;98418.78;5069620;28;20064;-84
2021/06/16 07:32:07;;;;;;;1.65;0.85;;;;;;;38.63;16.58;98417.47;5074056;28;20043;-83
2021/06/16 07:34:33;;;;;;;0.93;0.80;;;;;;;38.57;17.13;98425.31;5065712;28;20381;-84
2021/06/16 07:36:59;;;;;;;1.73;0.90;;;;;;;38.47;17.88;98414.63;5073750;28;20024;-83
2021/06/16 07:39:25;;;;;;;1.42;0.93;;;;;;;38.37;17.92;98419.88;5052549;28;20099;-84
2021/06/16 07:41:52;;;;;;;2.72;0.55;;;;;;;38.45;16.76;98418.03;5058600;28;20024;-84
2021/06/16 07:44:18;;;;;;;0.93;0.82;;;;;;;37.79;17.74;98418.84;5070702;28;20028;-84
2021/06/16 07:46:44;;;;;;;1.40;1.00;;;;;;;36.92;17.31;98435.31;5057793;28;20083;-84
2021/06/16 07:49:10;;;;;;;0.60;0.60;;;;;;;37.08;18.06;98428.88;5064675;28;20097;-84
2021/06/16 07:51:36;;;;;;;1.48;1.02;;;;;;;36.36;19.18;98431.31;5060430;28;20037;-84
2021/06/16 07:54:02;;;;;;;2.22;0.95;;;;;;;36.99;18.48;98434.81;5052054;28;20473;-84
2021/06/16 07:56:28;;;;;;;3.60;0.80;;;;;;;37.10;19.33;98440.59;5054969;28;20029;-83
2021/06/16 07:58:54;;;;;;;1.25;0.70;;;;;;;36.80;17.63;98435.75;5061183;28;20090;-84
2021/06/16 08:01:21;;;;;;;0.80;0.80;;;;;;;37.02;18.19;98438.72;5053006;28;20033;-84
2021/06/16 08:03:47;;;;;;;1.58;0.75;;;;;;;37.02;18.69;98435.84;5067375;28;20040;-84
2021/06/16 08:06:13;;;;;;;1.48;0.90;;;;;;;36.58;18.62;98439.28;5072714;28;20028;-84
2021/06/16 08:08:39;;;;;;;2.05;0.90;;;;;;;35.67;20.76;98437.50;5073078;28;20033;-84
2021/06/16 08:11:05;;;;;;;1.75;0.80;;;;;;;35.03;20.32;98432.91;5072999;28;20036;-84
2021/06/16 08:13:32;;;;;;;0.82;0.75;;;;;;;35.58;19.66;98435.63;5052424;28;20211;-84
2021/06/16 08:15:59;;;;;;;1.67;0.90;;;;;;;36.45;19.89;98438.94;5058822;28;20039;-84
2021/06/16 08:18:25;;;;;;;0.75;0.73;;;;;;;37.16;19.04;98444.25;5052825;28;20037;-84
2021/06/16 08:20:51;;;;;;;1.60;1.20;;;;;;;37.00;18.49;98436.38;5053988;28;20074;-84
2021/06/16 08:23:17;;;;;;;1.83;1.08;;;;;;;35.22;20.25;98442.72;5059008;28;20036;-84
2021/06/16 08:25:44;;;;;;;4.28;1.38;;;;;;;34.69;20.13;98439.47;5073136;28;20380;-84
2021/06/16 08:28:10;;;;;;;2.00;0.90;;;;;;;36.34;19.35;98444.56;5072931;28;20048;-84
2021/06/16 08:30:36;;;;;;;2.78;1.42;;;;;;;36.49;18.87;98445.22;5057785;28;20404;-84
2021/06/16 08:33:02;;;;;;;0.85;0.80;;;;;;;36.99;16.96;98443.41;5060301;28;20119;-84
2021/06/16 08:35:29;;;;;;;2.00;1.10;;;;;;;37.42;17.30;98449.00;5068155;28;20025;-84
2021/06/16 08:37:55;;;;;;;2.17;1.48;;;;;;;37.36;17.69;98446.13;5052668;28;20055;-84
2021/06/16 08:40:21;;;;;;;2.15;0.70;;;;;;;37.89;17.89;98445.19;5062642;28;20365;-84
2021/06/16 08:42:48;;;;;;;1.30;0.80;;;;;;;38.11;18.06;98441.56;5077175;28;20462;-84
2021/06/16 08:45:16;;;;;;;0.90;0.82;;;;;;;37.15;17.76;98445.56;5076491;28;20032;-85
2021/06/16 08:47:44;;;;;;;0.75;0.68;;;;;;;37.61;17.27;98447.22;5069104;28;20396;-84
2021/06/16 08:50:12;;;;;;;0.75;0.70;;;;;;;37.96;16.46;98442.59;5067300;28;20029;-84
2021/06/16 08:52:39;;;;;;;0.75;0.63;;;;;;;37.93;18.29;98448.59;5076216;28;20029;-85
2021/06/16 08:55:10;;;;;;;0.88;0.70;;;;;;;38.29;17.14;98449.63;5077190;28;20029;-84
2021/06/16 08:57:37;;;;;;;0.70;0.70;;;;;;;37.69;18.27;98451.94;5076659;28;20496;-85
2021/06/16 09:00:08;;;;;;;1.45;1.05;;;;;;;37.36;19.16;98451.84;5060711;28;20055;-85
2021/06/16 09:02:35;;;;;;;1.00;0.90;;;;;;;38.01;17.51;98449.63;5056350;28;20033;-85
2021/06/16 09:05:01;;;;;;;1.05;0.90;;;;;;;37.99;16.96;98447.31;5061116;28;20116;-84
2021/06/16 09:07:31;;;;;;;0.90;0.80;;;;;;;38.54;16.36;98448.53;5057714;28;20033;-84
2021/06/16 09:10:07;;;;;;;3.53;0.90;;;;;;;38.70;17.06;98453.44;5057114;28;20029;-84
2021/06/16 09:12:36;;;;;;;2.05;1.33;;;;;;;37.26;18.16;98459.13;5055255;28;20064;-85
2021/06/16 09:15:09;;;;;;;0.90;0.65;;;;;;;36.97;19.43;98453.81;5057090;28;20112;-84
2021/06/16 09:17:35;;;;;;;1.23;1.15;;;;;;;37.20;18.79;98464.06;5074669;28;20468;-85
2021/06/16 09:20:01;;;;;;;2.25;1.23;;;;;;;37.10;19.06;98457.78;5076455;28;20434;-84
2021/06/16 09:22:33;;;;;;;3.33;1.00;;;;;;;37.17;19.35;98459.34;5065154;28;20036;-85
2021/06/16 09:25:03;;;;;;;1.25;0.90;;;;;;;36.86;18.20;98463.09;5057359;28;20044;-84
2021/06/16 09:27:50;;;;;;;1.50;0.97;;;;;;;37.58;18.14;98454.78;5061191;28;20032;-85
2021/06/16 09:30:19;;;;;;;1.20;1.02;;;;;;;37.69;17.13;98451.94;5075717;28;20077;-84
2021/06/16 09:32:46;;;;;;;1.05;1.00;;;;;;;37.33;18.46;98455.75;5076424;28;20086;-84
2021/06/16 09:35:24;;;;;;;0.68;0.68;;;;;;;38.19;19.54;98454.84;5071429;28;20029;-84
2021/06/16 09:37:51;;;;;;;1.40;0.75;;;;;;;38.67;17.49;98449.53;5073544;28;20036;-85
2021/06/16 09:40:30;;;;;;;1.75;0.90;;;;;;;37.52;17.42;98458.94;5074603;28;20040;-84
2021/06/16 09:43:01;;;;;;;0.65;0.50;;;;;;;37.59;19.90;98450.63;5056871;28;20064;-85
2021/06/16 09:45:28;;;;;;;1.58;1.00;;;;;;;37.78;17.91;98453.78;5055991;28;20040;-84
2021/06/16 09:47:54;;;;;;;0.95;0.75;;;;;;;37.79;17.01;98455.31;5069378;28;20045;-84
2021/06/16 09:50:25;;;;;;;0.93;0.73;;;;;;;38.02;16.85;98451.97;5077928;28;20032;-84
2021/06/16 09:52:52;;;;;;;1.08;0.73;;;;;;;39.17;16.74;98452.28;5066564;28;20485;-84
2021/06/16 09:55:30;;;;;;;2.05;0.50;;;;;;;40.16;15.99;98452.97;5055841;28;20108;-85
2021/06/16 09:58:03;;;;;;;0.52;0.47;;;;;;;40.66;14.94;98456.13;5069647;28;20025;-85
2021/06/16 10:00:46;;;;;;;1.30;0.88;;;;;;;39.45;16.70;98449.25;5071991;28;20029;-84
2021/06/16 10:03:21;;;;;;;1.40;1.15;;;;;;;38.07;17.01;98459.00;5056119;28;20033;-85
2021/06/16 10:06:15;;;;;;;1.23;1.00;;;;;;;37.66;17.21;98460.78;5058656;28;20044;-84
2021/06/16 10:08:46;;;;;;;0.98;0.80;;;;;;;36.94;18.40;98461.34;5074335;28;20392;-85
2021/06/16 10:11:15;;;;;;;0.60;0.50;;;;;;;37.14;18.02;98461.16;5074151;28;20044;-84
2021/06/16 10:13:42;;;;;;;1.23;0.98;;;;;;;38.11;17.61;98453.81;5053749;28;20393;-85
2021/06/16 10:16:10;;;;;;;1.75;0.60;;;;;;;38.51;16.61;98443.88;5057807;28;20033;-85
2021/06/16 10:18:41;;;;;;;0.73;0.57;;;;;;;38.49;17.89;98434.97;5055089;28;20040;-85
2021/06/16 10:21:08;;;;;;;1.25;0.60;;;;;;;38.88;17.42;98441.44;5065293;28;20370;-85
2021/06/16 10:23:35;;;;;;;0.93;0.70;;;;;;;39.23;16.91;98444.41;5055238;28;20542;-85
2021/06/16 10:26:07;;;;;;;0.93;0.73;;;;;;;39.66;15.97;98447.56;5055216;28;20337;-85
2021/06/16 10:28:41;;;;;;;0.90;0.80;;;;;;;38.43;16.80;98443.63;5072820;28;20510;-85
2021/06/16 10:31:08;;;;;;;2.42;0.80;;;;;;;37.27;19.42;98450.00;5067411;28;20029;-85
2021/06/16 10:33:37;;;;;;;0.93;0.70;;;;;;;37.51;19.54;98454.53;5071383;28;20033;-85
2021/06/16 10:36:09;;;;;;;1.13;0.95;;;;;;;38.01;18.23;98444.69;5057476;28;20052;-85
2021/06/16 10:38:36;;;;;;;3.50;1.02;;;;;;;38.30;17.76;98443.38;5073693;28;20055;-86
2021/06/16 10:41:02;;;;;;;1.00;0.80;;;;;;;37.84;19.72;98448.84;5075253;28;20104;-85
2021/06/16 10:43:31;;;;;;;1.45;0.90;;;;;;;36.86;19.56;98445.13;5069905;28;20535;-85
2021/06/16 10:46:00;;;;;;;0.98;0.90;;;;;;;37.36;21.08;98451.84;5073359;28;20032;-85
2021/06/16 10:48:46;;;;;;;2.72;1.20;;;;;;;37.20;19.67;98444.75;5072075;28;20706;-85
2021/06/16 10:51:39;;;;;;;4.35;1.00;;;;;;;37.06;19.13;98454.34;5058600;28;20382;-86
2021/06/16 10:54:32;;;;;;;1.63;1.00;;;;;;;37.05;18.32;98446.28;5057733;28;20025;-85
2021/06/16 10:57:05;;;;;;;2.47;0.90;;;;;;;38.50;17.53;98430.81;5055748;28;20068;-86
2021/06/16 10:59:43;;;;;;;0.77;0.75;;;;;;;38.37;17.62;98431.34;5065571;28;20025;-86
2021/06/16 11:02:11;;;;;;;0.82;0.80;;;;;;;37.06;18.46;98436.41;5058736;28;20109;-85
2021/06/16 11:04:37;;;;;;;0.80;0.80;;;;;;;36.28;19.72;98435.94;5074394;28;20041;-85
2021/06/16 11:07:24;;;;;;;1.55;0.93;;;;;;;36.17;20.75;98435.09;5059854;28;20055;-86
2021/06/16 11:09:55;;;;;;;3.58;0.98;;;;;;;36.57;19.00;98440.59;5067384;28;20127;-86
2021/06/16 11:12:30;;;;;;;0.93;0.80;;;;;;;36.98;20.61;98444.69;5074258;28;20097;-85
2021/06/16 11:14:57;;;;;;;0.98;0.95;;;;;;;37.33;18.59;98455.75;5072032;28;20040;-86
2021/06/16 11:17:29;;;;;;;1.45;0.95;;;;;;;37.75;17.04;98441.25;5066980;28;20036;-86
2021/06/16 11:19:56;;;;;;;3.50;0.93;;;;;;;37.30;18.58;98448.19;5062993;28;20048;-86
2021/06/16 11:22:25;;;;;;;1.15;1.05;;;;;;;37.68;18.70;98436.03;5068852;28;20025;-85
2021/06/16 11:25:18;;;;;;;1.23;1.10;;;;;;;37.55;17.86;98430.06;5073611;28;20058;-85
2021/06/16 11:27:58;;;;;;;1.23;1.02;;;;;;;37.99;17.96;98432.19;5054199;28;20037;-85
2021/06/16 11:31:00;;;;;;;0.88;0.88;;;;;;;37.05;18.65;98434.81;5063439;28;20033;-85
2021/06/16 11:33:32;;;;;;;1.75;1.00;;;;;;;35.64;19.63;98430.72;5032515;28;20041;-85
2021/06/16 11:36:07;;;;;;;1.17;0.88;;;;;;;37.21;20.22;98437.75;5051059;28;20052;-85
2021/06/16 11:38:37;;;;;;;1.30;1.20;;;;;;;36.49;19.13;98431.69;5054080;28;20107;-85
2021/06/16 11:41:18;;;;;;;0.80;0.80;;;;;;;36.24;21.54;98426.03;5054498;28;20043;-85